Time;durP1;ratioP1;P1;durP2;ratioP2;P2;SDS_P1;SDS_P2;PMS_P1;PMS_P2;Temp;Humidity;BMP_temperature;BMP_pressure;BME280_temperature;BME280_humidity;BME280_pressure;Samples;Min_cycle;Max_cycle;Signal;HPM_P1;HPM_P2
2022/04/08 00:00:02;;;;;;;5.53;1.20;;;;;;;;;;4970147;28;20023;-85
2022/04/08 00:02:28;;;;;;;5.47;1.00;;;;;;;;;;4970544;28;20035;-85
2022/04/08 00:04:56;;;;;;;6.85;0.93;;;;;;;;;;4966933;28;20086;-85
2022/04/08 00:07:22;;;;;;;4.40;1.08;;;;;;;;;;4958139;28;20121;-85
2022/04/08 00:09:48;;;;;;;1.83;0.60;;;;;;;;;;4947354;28;20114;-85
2022/04/08 00:12:15;;;;;;;7.13;1.38;;;;;;;;;;4968481;28;20030;-85
2022/04/08 00:14:41;;;;;;;1.58;0.50;;;;;;;;;;4952385;28;20060;-84
2022/04/08 00:17:07;;;;;;;1.85;0.50;;;;;;;;;;4950754;28;20089;-85
2022/04/08 00:19:33;;;;;;;6.03;0.63;;;;;;;;;;4951060;28;20070;-85
2022/04/08 00:22:00;;;;;;;0.75;0.47;;;;;;;;;;4952786;28;20105;-86
2022/04/08 00:24:26;;;;;;;7.07;1.38;;;;;;;;;;4966141;28;20035;-85
2022/04/08 00:26:52;;;;;;;9.45;0.70;;;;;;;;;;4963828;28;20051;-82
2022/04/08 00:29:18;;;;;;;2.83;0.30;;;;;;;;;;4964549;28;20683;-85
2022/04/08 00:31:44;;;;;;;3.35;0.77;;;;;;;;;;4949826;28;20545;-84
2022/04/08 00:34:10;;;;;;;3.10;0.63;;;;;;;;;;4952757;28;20079;-85
2022/04/08 00:36:36;;;;;;;1.20;0.52;;;;;;;;;;4967701;28;20429;-85
2022/04/08 00:39:02;;;;;;;1.77;0.30;;;;;;;;;;4948457;28;20046;-85
2022/04/08 00:41:28;;;;;;;2.08;0.57;;;;;;;;;;4952482;28;20154;-84
2022/04/08 00:43:54;;;;;;;5.65;0.77;;;;;;;;;;4953188;28;20530;-84
2022/04/08 00:46:20;;;;;;;3.95;0.65;;;;;;;;;;4951040;28;20031;-83
2022/04/08 00:48:46;;;;;;;1.48;0.75;;;;;;;;;;4952199;28;20067;-84
2022/04/08 00:51:13;;;;;;;2.75;0.55;;;;;;;;;;4961495;28;20070;-84
2022/04/08 00:53:40;;;;;;;10.55;1.10;;;;;;;;;;4945568;28;20030;-84
2022/04/08 00:56:06;;;;;;;8.20;1.02;;;;;;;;;;4964888;28;20379;-82
2022/04/08 00:58:33;;;;;;;2.90;1.00;;;;;;;;;;4952009;28;20037;-85
2022/04/08 01:00:59;;;;;;;3.85;1.10;;;;;;;;;;4967830;28;20059;-85
2022/04/08 01:03:25;;;;;;;7.65;1.52;;;;;;;;;;4968396;28;20073;-82
2022/04/08 01:05:51;;;;;;;7.50;1.50;;;;;;;;;;4959500;28;20107;-86
2022/04/08 01:08:17;;;;;;;7.78;1.48;;;;;;;;;;4951093;28;20047;-84
2022/04/08 01:10:43;;;;;;;4.60;1.00;;;;;;;;;;4953922;28;20023;-85
2022/04/08 01:13:09;;;;;;;6.25;0.90;;;;;;;;;;4951232;28;20085;-85
2022/04/08 01:15:35;;;;;;;11.38;2.03;;;;;;;;;;4972538;28;20479;-85
2022/04/08 01:18:01;;;;;;;10.32;1.50;;;;;;;;;;4959886;28;20069;-85
2022/04/08 01:20:27;;;;;;;14.90;2.67;;;;;;;;;;4972262;28;20390;-84
2022/04/08 01:22:53;;;;;;;6.90;0.85;;;;;;;;;;4969231;28;20729;-84
2022/04/08 01:25:19;;;;;;;11.32;1.65;;;;;;;;;;4957188;28;20074;-84
2022/04/08 01:27:45;;;;;;;5.60;0.57;;;;;;;;;;4950317;28;20078;-84
2022/04/08 01:30:16;;;;;;;13.75;1.35;;;;;;;;;;4949454;28;20039;-85
2022/04/08 01:32:42;;;;;;;10.48;1.48;;;;;;;;;;4962096;28;20039;-85
2022/04/08 01:35:08;;;;;;;19.23;1.85;;;;;;;;;;4969834;28;20054;-84
2022/04/08 01:37:34;;;;;;;6.95;1.45;;;;;;;;;;4962892;28;20062;-84
2022/04/08 01:40:00;;;;;;;13.00;2.00;;;;;;;;;;4950938;28;20065;-84
2022/04/08 01:42:26;;;;;;;9.63;1.17;;;;;;;;;;4934830;28;20099;-85
2022/04/08 01:44:53;;;;;;;8.75;1.83;;;;;;;;;;4950275;28;20051;-85
2022/04/08 01:47:20;;;;;;;14.75;1.83;;;;;;;;;;4956855;28;20039;-84
2022/04/08 01:49:46;;;;;;;15.57;2.20;;;;;;;;;;4950958;28;20122;-85
2022/04/08 01:52:12;;;;;;;2.85;1.23;;;;;;;;;;4947187;28;20735;-84
2022/04/08 01:54:38;;;;;;;12.40;2.03;;;;;;;;;;4956462;28;20105;-85
2022/04/08 01:57:04;;;;;;;8.63;1.50;;;;;;;;;;4965138;28;20829;-83
2022/04/08 01:59:30;;;;;;;15.05;1.60;;;;;;;;;;4960323;28;20038;-84
2022/04/08 02:01:59;;;;;;;5.00;1.88;;;;;;;;;;4946713;28;20290;-84
2022/04/08 02:04:25;;;;;;;12.35;1.83;;;;;;;;;;4950985;28;20126;-84
2022/04/08 02:06:51;;;;;;;16.17;2.40;;;;;;;;;;4949097;28;20090;-84
2022/04/08 02:09:18;;;;;;;17.58;1.88;;;;;;;;;;4948973;28;20037;-85
2022/04/08 02:11:45;;;;;;;12.88;1.48;;;;;;;;;;4965872;28;20019;-85
2022/04/08 02:14:11;;;;;;;15.65;2.70;;;;;;;;;;4964941;28;20023;-83
2022/04/08 02:16:37;;;;;;;4.93;1.13;;;;;;;;;;4949287;28;20574;-83
2022/04/08 02:19:03;;;;;;;10.93;1.13;;;;;;;;;;4964869;28;20031;-85
2022/04/08 02:21:29;;;;;;;1.55;0.93;;;;;;;;;;4969861;28;20678;-85
2022/04/08 02:23:55;;;;;;;11.98;1.65;;;;;;;;;;4962001;28;20114;-85
2022/04/08 02:26:21;;;;;;;20.83;1.80;;;;;;;;;;4945955;28;20657;-85
2022/04/08 02:28:47;;;;;;;7.50;1.25;;;;;;;;;;4937721;28;20639;-83
2022/04/08 02:31:14;;;;;;;4.00;0.95;;;;;;;;;;4945709;28;20035;-84
2022/04/08 02:33:40;;;;;;;11.90;1.63;;;;;;;;;;4930478;28;20027;-85
2022/04/08 02:36:06;;;;;;;11.98;1.52;;;;;;;;;;4943499;28;20476;-84
2022/04/08 02:38:32;;;;;;;13.25;2.10;;;;;;;;;;4932606;28;20035;-82
2022/04/08 02:40:58;;;;;;;8.10;1.38;;;;;;;;;;4927174;29;20040;-84
2022/04/08 02:43:25;;;;;;;16.42;2.05;;;;;;;;;;4937613;28;20130;-84
2022/04/08 02:45:51;;;;;;;12.05;1.63;;;;;;;;;;4947418;28;20215;-85
2022/04/08 02:48:18;;;;;;;16.52;3.30;;;;;;;;;;4927431;28;20050;-85
2022/04/08 02:50:44;;;;;;;11.00;2.38;;;;;;;;;;4942592;28;20026;-85
2022/04/08 02:53:10;;;;;;;10.60;1.30;;;;;;;;;;4934786;29;20087;-84
2022/04/08 02:55:36;;;;;;;8.45;1.77;;;;;;;;;;4922866;28;20031;-85
2022/04/08 02:58:03;;;;;;;3.28;0.35;;;;;;;;;;4942943;28;20035;-84
2022/04/08 03:00:29;;;;;;;14.50;0.85;;;;;;;;;;4937682;28;20076;-84
2022/04/08 03:02:55;;;;;;;9.60;0.90;;;;;;;;;;4944800;29;20033;-85
2022/04/08 03:05:21;;;;;;;4.95;1.80;;;;;;;;;;4936556;28;20039;-84
2022/04/08 03:07:47;;;;;;;4.45;1.00;;;;;;;;;;4928885;29;20745;-84
2022/04/08 03:10:14;;;;;;;8.05;1.38;;;;;;;;;;4933437;29;20020;-83
2022/04/08 03:12:40;;;;;;;14.13;1.50;;;;;;;;;;4943632;28;20066;-85
2022/04/08 03:15:07;;;;;;;15.20;1.77;;;;;;;;;;4933078;29;20447;-85
2022/04/08 03:17:33;;;;;;;6.93;1.30;;;;;;;;;;4949007;28;20035;-84
2022/04/08 03:19:59;;;;;;;9.45;1.33;;;;;;;;;;4944918;29;20034;-85
2022/04/08 03:22:25;;;;;;;13.10;1.67;;;;;;;;;;4944145;28;20031;-83
2022/04/08 03:24:52;;;;;;;6.50;1.48;;;;;;;;;;4936000;29;20519;-85
2022/04/08 03:27:18;;;;;;;3.55;0.75;;;;;;;;;;4950421;28;20046;-85
2022/04/08 03:29:45;;;;;;;4.63;1.25;;;;;;;;;;4990423;28;20088;-84
2022/04/08 03:32:11;;;;;;;8.45;1.48;;;;;;;;;;4977489;28;20050;-85
2022/04/08 03:34:38;;;;;;;1.98;0.90;;;;;;;;;;4970366;28;20026;-84
2022/04/08 03:37:04;;;;;;;1.85;0.68;;;;;;;;;;4974145;28;20394;-85
2022/04/08 03:39:30;;;;;;;11.90;1.60;;;;;;;;;;4991335;28;20441;-84
2022/04/08 03:41:57;;;;;;;10.70;1.30;;;;;;;;;;4988340;28;20096;-85
2022/04/08 03:44:23;;;;;;;6.20;1.40;;;;;;;;;;4972472;28;20638;-83
2022/04/08 03:46:49;;;;;;;4.72;1.00;;;;;;;;;;4981686;28;20050;-85
2022/04/08 03:49:16;;;;;;;6.20;1.58;;;;;;;;;;4971328;28;20061;-84
2022/04/08 03:51:46;;;;;;;6.85;0.85;;;;;;;;;;4989205;28;20386;-85
2022/04/08 03:54:12;;;;;;;9.00;1.23;;;;;;;;;;4971688;28;20652;-85
2022/04/08 03:56:41;;;;;;;4.97;1.30;;;;;;;;;;4975636;28;20038;-84
2022/04/08 03:59:07;;;;;;;8.48;0.90;;;;;;;;;;4974812;28;20026;-84
2022/04/08 04:01:34;;;;;;;12.35;2.03;;;;;;;;;;4990619;28;20034;-84
2022/04/08 04:04:00;;;;;;;14.70;1.83;;;;;;;;;;4969342;28;20064;-85
2022/04/08 04:06:26;;;;;;;5.57;0.98;;;;;;;;;;4989336;28;20027;-83
2022/04/08 04:08:52;;;;;;;3.03;1.05;;;;;;;;;;4989921;28;20041;-85
2022/04/08 04:11:18;;;;;;;3.60;0.90;;;;;;;;;;4973642;28;20022;-85
2022/04/08 04:13:52;;;;;;;1.25;0.88;;;;;;;;;;4970735;28;20022;-84
2022/04/08 04:16:24;;;;;;;1.95;0.95;;;;;;;;;;4953280;28;20482;-84
2022/04/08 04:18:50;;;;;;;2.53;0.88;;;;;;;;;;4969428;28;20042;-84
2022/04/08 04:21:16;;;;;;;1.85;0.75;;;;;;;;;;4947727;28;20110;-83
2022/04/08 04:23:42;;;;;;;3.45;1.17;;;;;;;;;;4968233;28;20507;-83
2022/04/08 04:26:08;;;;;;;4.53;1.10;;;;;;;;;;4966540;28;20272;-84
2022/04/08 04:28:34;;;;;;;1.35;0.77;;;;;;;;;;4970689;28;20507;-83
2022/04/08 04:31:03;;;;;;;5.07;0.70;;;;;;;;;;4969528;28;20037;-83
2022/04/08 04:33:29;;;;;;;6.10;2.05;;;;;;;;;;4951939;28;20688;-83
2022/04/08 04:35:55;;;;;;;7.80;3.03;;;;;;;;;;4960386;28;20067;-83
2022/04/08 04:38:22;;;;;;;11.13;1.85;;;;;;;;;;4965967;28;20396;-84
2022/04/08 04:40:48;;;;;;;6.90;1.40;;;;;;;;;;4965797;28;20660;-83
2022/04/08 04:43:14;;;;;;;1.65;1.05;;;;;;;;;;4967601;28;20047;-84
2022/04/08 04:45:40;;;;;;;3.50;1.38;;;;;;;;;;4950273;28;20581;-85
2022/04/08 04:48:07;;;;;;;2.92;0.77;;;;;;;;;;4957915;28;20402;-84
2022/04/08 04:50:33;;;;;;;1.73;0.95;;;;;;;;;;4947177;28;20569;-83
2022/04/08 04:52:58;;;;;;;1.15;0.82;;;;;;;;;;4949874;28;20085;-83
2022/04/08 04:55:24;;;;;;;11.90;2.45;;;;;;;;;;4963141;28;20050;-84
2022/04/08 04:57:50;;;;;;;4.97;1.60;;;;;;;;;;4962708;28;20031;-84
2022/04/08 05:00:18;;;;;;;1.55;0.65;;;;;;;;;;4967115;28;20110;-83
2022/04/08 05:02:44;;;;;;;2.65;1.20;;;;;;;;;;4949595;28;20557;-83
2022/04/08 05:05:10;;;;;;;3.22;0.88;;;;;;;;;;4966128;28;20027;-84
2022/04/08 05:07:37;;;;;;;6.47;0.80;;;;;;;;;;4946661;28;20035;-83
2022/04/08 05:10:04;;;;;;;8.35;1.40;;;;;;;;;;4961038;28;20384;-84
2022/04/08 05:12:30;;;;;;;11.18;1.58;;;;;;;;;;4949893;28;20475;-83
2022/04/08 05:14:56;;;;;;;7.07;2.30;;;;;;;;;;4952331;28;20538;-84
2022/04/08 05:17:22;;;;;;;12.30;1.65;;;;;;;;;;4950807;28;20394;-84
2022/04/08 05:19:49;;;;;;;4.15;1.70;;;;;;;;;;4960816;28;20097;-83
2022/04/08 05:22:15;;;;;;;4.15;1.00;;;;;;;;;;4963121;28;20031;-84
2022/04/08 05:24:41;;;;;;;1.90;1.02;;;;;;;;;;4950541;28;20062;-84
2022/04/08 05:27:07;;;;;;;3.30;0.73;;;;;;;;;;4967466;28;20055;-84
2022/04/08 05:29:33;;;;;;;7.43;1.38;;;;;;;;;;4931300;29;20039;-84
2022/04/08 05:32:02;;;;;;;1.40;0.93;;;;;;;;;;4944972;28;20093;-84
2022/04/08 05:34:28;;;;;;;7.97;1.48;;;;;;;;;;4948564;28;20415;-83
2022/04/08 05:36:54;;;;;;;3.50;1.65;;;;;;;;;;4932416;28;20410;-84
2022/04/08 05:39:20;;;;;;;8.48;1.63;;;;;;;;;;4930429;29;20094;-84
2022/04/08 05:41:46;;;;;;;2.40;1.73;;;;;;;;;;4942800;29;20493;-85
2022/04/08 05:44:12;;;;;;;4.50;1.13;;;;;;;;;;4945619;28;20039;-85
2022/04/08 05:46:39;;;;;;;4.15;1.55;;;;;;;;;;4942702;28;20039;-85
2022/04/08 05:49:05;;;;;;;3.10;1.25;;;;;;;;;;4929255;28;20028;-84
2022/04/08 05:51:31;;;;;;;2.03;1.08;;;;;;;;;;4947754;28;20058;-84
2022/04/08 05:53:58;;;;;;;3.78;1.63;;;;;;;;;;4933293;29;20051;-85
2022/04/08 05:56:24;;;;;;;6.47;1.40;;;;;;;;;;4930318;29;20032;-86
2022/04/08 05:58:50;;;;;;;9.43;1.98;;;;;;;;;;4931239;29;20039;-85
2022/04/08 06:01:16;;;;;;;4.95;1.85;;;;;;;;;;4946746;28;20039;-86
2022/04/08 06:03:42;;;;;;;3.88;0.95;;;;;;;;;;4940929;28;20050;-85
2022/04/08 06:06:08;;;;;;;9.15;1.33;;;;;;;;;;4946567;28;20126;-85
2022/04/08 06:08:34;;;;;;;7.95;1.45;;;;;;;;;;4945814;29;20179;-86
2022/04/08 06:11:00;;;;;;;5.53;1.25;;;;;;;;;;4946977;28;20045;-85
2022/04/08 06:13:26;;;;;;;4.45;1.50;;;;;;;;;;4940477;29;20046;-84
2022/04/08 06:15:56;;;;;;;5.93;1.33;;;;;;;;;;4928385;29;20661;-84
2022/04/08 06:18:22;;;;;;;8.02;1.92;;;;;;;;;;4943240;28;20024;-85
2022/04/08 06:20:48;;;;;;;4.70;2.10;;;;;;;;;;4941840;28;20039;-83
2022/04/08 06:23:14;;;;;;;4.70;1.23;;;;;;;;;;4936070;29;20864;-84
2022/04/08 06:25:40;;;;;;;13.05;1.73;;;;;;;;;;4942482;28;20055;-84
2022/04/08 06:28:07;;;;;;;4.65;1.55;;;;;;;;;;4956734;28;20059;-85
2022/04/08 06:30:38;;;;;;;3.78;1.40;;;;;;;;;;4966308;28;20031;-85
2022/04/08 06:33:05;;;;;;;8.52;1.27;;;;;;;;;;4964472;28;20057;-85
2022/04/08 06:35:31;;;;;;;4.68;1.95;;;;;;;;;;4970208;28;20023;-85
2022/04/08 06:37:58;;;;;;;2.22;1.00;;;;;;;;;;4948035;28;20137;-83
2022/04/08 06:40:24;;;;;;;6.18;1.42;;;;;;;;;;4951121;28;20042;-85
2022/04/08 06:42:55;;;;;;;12.75;1.75;;;;;;;;;;4958848;28;20041;-86
2022/04/08 06:45:21;;;;;;;4.80;1.33;;;;;;;;;;4963575;28;20046;-85
2022/04/08 06:47:48;;;;;;;6.15;2.13;;;;;;;;;;4948896;28;20121;-85
2022/04/08 06:50:15;;;;;;;5.40;1.48;;;;;;;;;;4963108;28;20026;-85
2022/04/08 06:52:41;;;;;;;8.40;2.03;;;;;;;;;;4968852;28;20478;-85
2022/04/08 06:55:07;;;;;;;4.68;1.45;;;;;;;;;;4975735;28;20069;-84
2022/04/08 06:57:33;;;;;;;13.30;1.95;;;;;;;;;;4983438;28;20037;-85
2022/04/08 07:00:03;;;;;;;3.20;1.17;;;;;;;;;;4962555;28;20042;-85
2022/04/08 07:02:29;;;;;;;12.57;1.48;;;;;;;;;;4970162;28;20036;-85
2022/04/08 07:04:55;;;;;;;5.30;1.25;;;;;;;;;;4979225;28;20038;-85
2022/04/08 07:07:21;;;;;;;4.20;1.30;;;;;;;;;;4966545;28;20129;-85
2022/04/08 07:09:47;;;;;;;13.50;1.33;;;;;;;;;;4984221;28;20545;-86
2022/04/08 07:12:13;;;;;;;7.20;1.52;;;;;;;;;;4964602;28;20117;-85
2022/04/08 07:14:39;;;;;;;3.33;1.08;;;;;;;;;;4969094;28;20081;-86
2022/04/08 07:17:05;;;;;;;11.02;1.60;;;;;;;;;;4971065;28;20034;-86
2022/04/08 07:19:32;;;;;;;9.07;1.73;;;;;;;;;;4975665;28;20038;-86
2022/04/08 07:21:58;;;;;;;7.82;1.45;;;;;;;;;;4980431;28;20384;-86
2022/04/08 07:24:24;;;;;;;2.63;1.23;;;;;;;;;;4965882;28;20408;-85
2022/04/08 07:26:50;;;;;;;7.68;1.80;;;;;;;;;;4968006;28;20038;-85
2022/04/08 07:29:16;;;;;;;8.98;1.83;;;;;;;;;;4970976;28;20046;-86
2022/04/08 07:31:43;;;;;;;6.85;2.63;;;;;;;;;;4965455;28;20112;-85
2022/04/08 07:34:09;;;;;;;7.32;1.48;;;;;;;;;;4962520;28;20029;-85
2022/04/08 07:36:35;;;;;;;4.90;1.48;;;;;;;;;;4966938;28;20528;-85
2022/04/08 07:39:01;;;;;;;4.97;1.70;;;;;;;;;;4980287;28;20037;-86
2022/04/08 07:41:27;;;;;;;8.98;1.17;;;;;;;;;;4963650;28;20038;-86
2022/04/08 07:43:55;;;;;;;6.40;1.80;;;;;;;;;;4967506;28;20031;-85
2022/04/08 07:46:21;;;;;;;2.50;0.85;;;;;;;;;;4966393;28;20034;-86
2022/04/08 07:48:47;;;;;;;7.13;1.30;;;;;;;;;;4983039;28;20120;-85
2022/04/08 07:51:13;;;;;;;17.17;1.73;;;;;;;;;;4967378;28;20034;-84
2022/04/08 07:53:39;;;;;;;4.35;1.63;;;;;;;;;;4966468;28;20055;-85
2022/04/08 07:56:05;;;;;;;8.30;1.38;;;;;;;;;;4966270;28;20524;-85
2022/04/08 07:58:31;;;;;;;1.08;0.65;;;;;;;;;;4969837;28;20034;-84
2022/04/08 08:00:58;;;;;;;3.45;0.90;;;;;;;;;;4966859;28;20022;-85
2022/04/08 08:03:24;;;;;;;5.35;1.17;;;;;;;;;;4969247;28;20022;-85
2022/04/08 08:05:52;;;;;;;5.15;1.55;;;;;;;;;;4979904;28;20647;-85
2022/04/08 08:08:19;;;;;;;9.13;1.73;;;;;;;;;;4966234;28;20049;-84
2022/04/08 08:10:45;;;;;;;3.47;1.00;;;;;;;;;;4970210;28;20069;-85
2022/04/08 08:13:12;;;;;;;1.20;0.75;;;;;;;;;;4966237;28;20058;-85
2022/04/08 08:15:41;;;;;;;6.28;1.48;;;;;;;;;;4966019;28;20031;-85
2022/04/08 08:18:08;;;;;;;17.50;4.07;;;;;;;;;;4969486;28;20130;-85
2022/04/08 08:20:34;;;;;;;7.18;2.47;;;;;;;;;;4981585;28;20084;-85
2022/04/08 08:23:00;;;;;;;3.50;1.80;;;;;;;;;;4967353;28;20692;-85
2022/04/08 08:25:26;;;;;;;10.00;2.00;;;;;;;;;;4967073;28;20059;-84
2022/04/08 08:27:54;;;;;;;5.43;2.22;;;;;;;;;;4972749;28;20169;-85
2022/04/08 08:30:20;;;;;;;9.30;1.38;;;;;;;;;;4979969;28;20022;-85
2022/04/08 08:32:47;;;;;;;3.17;1.77;;;;;;;;;;4972687;28;20744;-85
2022/04/08 08:35:14;;;;;;;2.45;1.00;;;;;;;;;;4965830;28;20037;-86
2022/04/08 08:37:40;;;;;;;2.65;1.10;;;;;;;;;;4970083;28;20069;-85
2022/04/08 08:40:07;;;;;;;4.30;1.85;;;;;;;;;;4984318;28;20463;-85
2022/04/08 08:42:35;;;;;;;16.23;1.67;;;;;;;;;;4970597;28;20042;-85
2022/04/08 08:45:01;;;;;;;5.85;1.38;;;;;;;;;;4972755;28;20023;-85
2022/04/08 08:47:30;;;;;;;7.82;2.10;;;;;;;;;;4986186;28;20065;-85
2022/04/08 08:49:56;;;;;;;5.53;1.20;;;;;;;;;;4987611;28;20030;-85
2022/04/08 08:52:22;;;;;;;4.35;1.08;;;;;;;;;;4968876;28;20027;-85
2022/04/08 08:54:48;;;;;;;9.40;1.40;;;;;;;;;;4981293;28;20029;-85
2022/04/08 08:57:15;;;;;;;3.45;1.35;;;;;;;;;;4986525;28;21025;-85
2022/04/08 08:59:42;;;;;;;1.30;0.90;;;;;;;;;;4966560;28;20097;-85
2022/04/08 09:02:08;;;;;;;4.68;1.77;;;;;;;;;;4967423;28;20121;-85
2022/04/08 09:04:40;;;;;;;7.38;1.45;;;;;;;;;;4976933;28;20122;-85
2022/04/08 09:07:07;;;;;;;8.20;1.17;;;;;;;;;;4975581;28;20033;-85
2022/04/08 09:09:33;;;;;;;6.93;1.75;;;;;;;;;;4976794;28;20033;-85
2022/04/08 09:12:15;;;;;;;9.48;1.08;;;;;;;;;;4984312;28;20034;-85
2022/04/08 09:14:48;;;;;;;2.08;0.60;;;;;;;;;;4984293;28;20026;-86
2022/04/08 09:17:16;;;;;;;3.50;1.00;;;;;;;;;;4971150;28;20070;-86
2022/04/08 09:19:42;;;;;;;6.38;1.20;;;;;;;;;;4971111;28;20030;-85
2022/04/08 09:22:10;;;;;;;2.08;0.80;;;;;;;;;;4968614;28;20450;-86
2022/04/08 09:24:36;;;;;;;8.02;1.38;;;;;;;;;;4972717;28;20483;-85
2022/04/08 09:27:02;;;;;;;3.00;1.35;;;;;;;;;;4968698;28;20486;-85
2022/04/08 09:29:28;;;;;;;6.13;1.60;;;;;;;;;;4983738;28;20108;-85
2022/04/08 09:32:02;;;;;;;6.63;1.80;;;;;;;;;;4971494;28;20116;-85
2022/04/08 09:34:29;;;;;;;3.20;1.50;;;;;;;;;;4988374;28;20549;-84
2022/04/08 09:36:57;;;;;;;4.80;1.08;;;;;;;;;;4969205;28;20121;-85
2022/04/08 09:39:23;;;;;;;10.25;1.88;;;;;;;;;;4966800;28;20470;-85
2022/04/08 09:41:52;;;;;;;4.00;1.02;;;;;;;;;;4965918;28;20096;-85
2022/04/08 09:44:25;;;;;;;3.42;1.00;;;;;;;;;;4982203;28;20125;-85
2022/04/08 09:46:52;;;;;;;7.15;1.55;;;;;;;;;;4959983;28;20046;-85
2022/04/08 09:49:18;;;;;;;3.45;1.33;;;;;;;;;;4966526;28;20023;-85
2022/04/08 09:51:44;;;;;;;2.13;1.15;;;;;;;;;;4966199;28;20060;-85
2022/04/08 09:54:12;;;;;;;2.97;1.38;;;;;;;;;;4965691;28;20027;-85
2022/04/08 09:56:38;;;;;;;1.25;1.10;;;;;;;;;;4983683;28;20053;-84
2022/04/08 09:59:07;;;;;;;8.93;2.10;;;;;;;;;;4966482;28;20588;-85
2022/04/08 10:01:35;;;;;;;4.78;1.30;;;;;;;;;;4984602;28;20502;-84
2022/04/08 10:04:02;;;;;;;4.00;0.93;;;;;;;;;;4971435;28;20042;-84
2022/04/08 10:06:28;;;;;;;4.40;1.67;;;;;;;;;;4968355;28;20034;-85
2022/04/08 10:08:54;;;;;;;1.92;1.02;;;;;;;;;;4968065;28;20030;-84
2022/04/08 10:11:24;;;;;;;7.65;2.10;;;;;;;;;;4979294;28;20027;-84
2022/04/08 10:14:11;;;;;;;2.05;1.08;;;;;;;;;;4967283;28;20084;-84
2022/04/08 10:16:41;;;;;;;4.55;1.70;;;;;;;;;;4981682;28;20080;-85
2022/04/08 10:19:07;;;;;;;3.28;1.00;;;;;;;;;;4979243;28;20061;-84
2022/04/08 10:21:40;;;;;;;1.05;0.60;;;;;;;;;;4968691;28;20660;-85
2022/04/08 10:24:13;;;;;;;4.82;0.88;;;;;;;;;;4981578;28;20046;-84
2022/04/08 10:26:58;;;;;;;8.40;1.40;;;;;;;;;;4967681;28;20034;-85
2022/04/08 10:29:24;;;;;;;3.03;0.63;;;;;;;;;;4982938;28;20494;-84
2022/04/08 10:32:26;;;;;;;1.90;1.02;;;;;;;;;;4970301;28;20027;-84
2022/04/08 10:34:52;;;;;;;6.18;1.23;;;;;;;;;;4884873;29;20400;-84
2022/04/08 10:37:24;;;;;;;4.40;1.05;;;;;;;;;;4965190;28;20526;-84
2022/04/08 10:40:02;;;;;;;9.13;1.20;;;;;;;;;;4982488;28;20034;-84
2022/04/08 10:42:29;;;;;;;5.45;1.60;;;;;;;;;;4987612;28;20133;-84
2022/04/08 10:44:55;;;;;;;2.50;0.85;;;;;;;;;;4965013;28;20030;-84
2022/04/08 10:47:23;;;;;;;2.35;0.90;;;;;;;;;;4987691;28;20046;-85
2022/04/08 10:49:50;;;;;;;2.97;1.40;;;;;;;;;;4966749;28;20142;-84
2022/04/08 10:52:16;;;;;;;5.93;1.23;;;;;;;;;;4988931;28;20026;-85
2022/04/08 10:54:42;;;;;;;1.77;0.90;;;;;;;;;;4969133;28;20054;-86
2022/04/08 10:57:08;;;;;;;6.18;0.90;;;;;;;;;;4966155;28;20038;-86
2022/04/08 10:59:35;;;;;;;4.78;0.80;;;;;;;;;;4967982;28;20545;-85
2022/04/08 11:02:05;;;;;;;7.40;1.65;;;;;;;;;;4983594;28;20486;-85
2022/04/08 11:04:31;;;;;;;2.55;1.15;;;;;;;;;;4968383;28;20031;-85
2022/04/08 11:07:03;;;;;;;7.95;2.47;;;;;;;;;;4976934;28;20100;-85
2022/04/08 11:09:29;;;;;;;7.10;1.50;;;;;;;;;;4982861;28;20494;-85
2022/04/08 11:11:56;;;;;;;1.13;1.02;;;;;;;;;;4979606;28;20037;-84
2022/04/08 11:14:22;;;;;;;9.25;1.60;;;;;;;;;;4984745;28;20018;-85
2022/04/08 11:16:50;;;;;;;7.85;1.38;;;;;;;;;;4990468;28;20029;-85
2022/04/08 11:19:20;;;;;;;5.10;1.58;;;;;;;;;;4983130;28;20034;-85
2022/04/08 11:21:51;;;;;;;6.13;1.90;;;;;;;;;;4985153;28;20033;-85
2022/04/08 11:24:18;;;;;;;6.47;1.65;;;;;;;;;;4979753;28;20038;-85
2022/04/08 11:26:48;;;;;;;7.15;1.55;;;;;;;;;;4968066;28;20041;-86
2022/04/08 11:29:24;;;;;;;7.82;1.15;;;;;;;;;;4970936;28;20516;-86
2022/04/08 11:31:51;;;;;;;5.68;0.98;;;;;;;;;;4978391;28;20034;-85
2022/04/08 11:34:17;;;;;;;1.35;0.98;;;;;;;;;;4975683;28;20092;-85
2022/04/08 11:36:44;;;;;;;7.97;1.38;;;;;;;;;;4969123;28;20103;-86
2022/04/08 11:39:10;;;;;;;4.20;0.95;;;;;;;;;;4988554;28;20031;-85
2022/04/08 11:41:38;;;;;;;2.63;0.73;;;;;;;;;;4970448;28;20113;-85
2022/04/08 11:44:04;;;;;;;5.45;1.25;;;;;;;;;;4970351;28;20030;-85
2022/04/08 11:46:34;;;;;;;4.68;1.30;;;;;;;;;;4970249;28;20088;-86
2022/04/08 11:49:00;;;;;;;5.30;0.77;;;;;;;;;;4978452;28;20066;-86
2022/04/08 11:51:28;;;;;;;2.33;0.90;;;;;;;;;;4980337;28;20027;-85
2022/04/08 11:53:54;;;;;;;3.88;1.20;;;;;;;;;;4970938;28;20065;-86
2022/04/08 11:56:22;;;;;;;5.03;1.48;;;;;;;;;;4972949;28;20090;-86
2022/04/08 11:59:11;;;;;;;2.28;1.00;;;;;;;;;;4970848;28;20231;-85
2022/04/08 12:01:41;;;;;;;4.35;1.15;;;;;;;;;;4970245;28;20047;-85
2022/04/08 12:04:11;;;;;;;3.88;0.90;;;;;;;;;;4971086;28;20033;-85
2022/04/08 12:06:37;;;;;;;8.10;1.02;;;;;;;;;;4967697;28;20042;-85
2022/04/08 12:09:03;;;;;;;3.40;0.88;;;;;;;;;;4972592;28;20165;-85
2022/04/08 12:11:31;;;;;;;6.47;1.10;;;;;;;;;;4970412;28;20029;-85
2022/04/08 12:13:57;;;;;;;5.28;1.50;;;;;;;;;;4969903;28;20043;-85
2022/04/08 12:16:23;;;;;;;7.97;1.45;;;;;;;;;;4983318;28;20441;-85
2022/04/08 12:18:51;;;;;;;1.15;0.57;;;;;;;;;;4969214;28;20096;-85
2022/04/08 12:21:22;;;;;;;9.63;2.47;;;;;;;;;;4972931;28;20277;-85
2022/04/08 12:23:49;;;;;;;2.58;1.23;;;;;;;;;;4979365;28;20034;-85
2022/04/08 12:26:15;;;;;;;5.47;1.00;;;;;;;;;;4968671;28;20117;-85
2022/04/08 12:28:41;;;;;;;4.63;1.33;;;;;;;;;;4991385;28;20073;-84
2022/04/08 12:31:21;;;;;;;2.65;0.93;;;;;;;;;;4967047;28;20039;-85
2022/04/08 12:33:47;;;;;;;8.30;1.80;;;;;;;;;;4965208;28;20045;-84
2022/04/08 12:36:14;;;;;;;8.15;0.80;;;;;;;;;;4979812;28;20633;-83
2022/04/08 12:38:40;;;;;;;8.50;1.55;;;;;;;;;;4991358;28;20022;-83
2022/04/08 12:41:08;;;;;;;3.35;1.48;;;;;;;;;;4965317;28;20030;-83
2022/04/08 12:43:34;;;;;;;5.72;1.75;;;;;;;;;;4971273;28;20060;-83
2022/04/08 12:46:00;;;;;;;8.48;0.98;;;;;;;;;;4970545;28;20049;-83
2022/04/08 12:48:27;;;;;;;8.18;1.42;;;;;;;;;;4983768;28;20031;-83
2022/04/08 12:50:53;;;;;;;2.30;0.70;;;;;;;;;;4970363;28;20433;-83
2022/04/08 12:53:20;;;;;;;7.65;1.27;;;;;;;;;;4971901;28;20057;-84
2022/04/08 12:55:46;;;;;;;6.57;1.30;;;;;;;;;;4973651;28;20080;-84
2022/04/08 12:58:12;;;;;;;1.85;1.00;;;;;;;;;;4968847;28;20042;-83
2022/04/08 13:00:38;;;;;;;3.40;1.48;;;;;;;;;;4970374;28;20034;-83
2022/04/08 13:03:04;;;;;;;6.22;1.48;;;;;;;;;;4986008;28;20433;-83
2022/04/08 13:05:30;;;;;;;2.40;0.90;;;;;;;;;;4972374;28;20168;-83
2022/04/08 13:07:56;;;;;;;4.45;1.15;;;;;;;;;;4965325;28;20121;-83
2022/04/08 13:10:22;;;;;;;3.55;1.10;;;;;;;;;;4987343;28;20022;-84
2022/04/08 13:12:48;;;;;;;3.55;1.25;;;;;;;;;;4971744;28;20124;-83
2022/04/08 13:15:14;;;;;;;7.10;1.85;;;;;;;;;;4985444;28;20142;-84
2022/04/08 13:17:41;;;;;;;8.63;1.40;;;;;;;;;;4968004;28;20405;-84
2022/04/08 13:20:07;;;;;;;13.82;2.28;;;;;;;;;;4987365;28;20073;-83
2022/04/08 13:22:33;;;;;;;2.10;0.70;;;;;;;;;;4969301;28;20030;-84
2022/04/08 13:24:59;;;;;;;9.05;1.38;;;;;;;;;;4965432;28;20041;-84
2022/04/08 13:27:26;;;;;;;5.03;1.08;;;;;;;;;;4965310;28;20293;-83
2022/04/08 13:29:52;;;;;;;3.35;0.93;;;;;;;;;;4970316;28;20041;-83
2022/04/08 13:32:18;;;;;;;6.22;1.02;;;;;;;;;;4966103;28;20038;-84
2022/04/08 13:34:45;;;;;;;4.38;1.23;;;;;;;;;;4994999;28;20026;-84
2022/04/08 13:37:11;;;;;;;6.35;1.20;;;;;;;;;;4967824;28;20037;-83
2022/04/08 13:39:37;;;;;;;11.50;1.08;;;;;;;;;;4971171;28;20375;-83
2022/04/08 13:42:04;;;;;;;6.82;1.02;;;;;;;;;;4965583;28;20034;-84
2022/04/08 13:44:33;;;;;;;4.75;1.25;;;;;;;;;;4965152;28;20043;-84
2022/04/08 13:47:06;;;;;;;3.95;1.02;;;;;;;;;;4982531;28;20136;-83
2022/04/08 13:49:32;;;;;;;8.90;2.45;;;;;;;;;;4968169;28;20425;-83
2022/04/08 13:51:58;;;;;;;2.50;0.63;;;;;;;;;;4982812;28;20077;-84
2022/04/08 13:54:25;;;;;;;10.13;1.17;;;;;;;;;;4987033;28;20578;-83
2022/04/08 13:56:51;;;;;;;2.67;1.55;;;;;;;;;;4969535;28;20522;-83
2022/04/08 13:59:17;;;;;;;8.85;1.13;;;;;;;;;;4985956;28;20041;-83
2022/04/08 14:01:43;;;;;;;8.27;0.90;;;;;;;;;;4970365;28;20030;-84
2022/04/08 14:04:10;;;;;;;4.50;1.23;;;;;;;;;;4986598;28;20443;-83
2022/04/08 14:06:37;;;;;;;4.45;1.35;;;;;;;;;;4967176;28;20628;-84
2022/04/08 14:09:04;;;;;;;11.40;1.77;;;;;;;;;;4968356;28;20089;-84
2022/04/08 14:11:30;;;;;;;6.05;1.30;;;;;;;;;;4969614;28;20081;-83
2022/04/08 14:13:56;;;;;;;7.97;1.45;;;;;;;;;;4961374;28;20233;-83
2022/04/08 14:16:22;;;;;;;5.40;0.75;;;;;;;;;;4989021;28;20474;-83
2022/04/08 14:18:48;;;;;;;9.18;1.55;;;;;;;;;;4965899;28;20100;-83
2022/04/08 14:21:15;;;;;;;8.40;1.35;;;;;;;;;;4984414;28;20077;-83
2022/04/08 14:23:42;;;;;;;5.18;1.25;;;;;;;;;;4967830;28;20035;-83
2022/04/08 14:26:08;;;;;;;3.63;1.02;;;;;;;;;;4970526;28;20030;-83
2022/04/08 14:28:41;;;;;;;7.57;0.95;;;;;;;;;;4972034;28;20043;-83
2022/04/08 14:31:07;;;;;;;4.15;0.95;;;;;;;;;;4978239;28;20363;-83
2022/04/08 14:33:33;;;;;;;4.97;1.27;;;;;;;;;;4982331;28;20048;-83
2022/04/08 14:35:59;;;;;;;2.28;1.10;;;;;;;;;;4986311;28;20727;-82
2022/04/08 14:38:25;;;;;;;6.63;1.20;;;;;;;;;;4981444;28;20389;-83